sensor_id;sensor_type;location;lat;lon;timestamp;P1;durP1;ratioP1;P2;durP2;ratioP2
6651;SDS011;3362;50.892;10.692;2023-02-28T00:01:18;3.67;;;2.10;;
6651;SDS011;3362;50.892;10.692;2023-02-28T00:03:46;2.00;;;1.70;;
6651;SDS011;3362;50.892;10.692;2023-02-28T00:06:12;7.10;;;2.45;;
6651;SDS011;3362;50.892;10.692;2023-02-28T00:08:38;5.17;;;2.30;;
6651;SDS011;3362;50.892;10.692;2023-02-28T00:11:06;3.95;;;2.17;;
6651;SDS011;3362;50.892;10.692;2023-02-28T00:13:33;4.57;;;2.15;;
6651;SDS011;3362;50.892;10.692;2023-02-28T00:16:00;4.70;;;2.60;;
6651;SDS011;3362;50.892;10.692;2023-02-28T00:18:27;3.00;;;2.27;;
6651;SDS011;3362;50.892;10.692;2023-02-28T00:20:54;3.83;;;2.43;;
6651;SDS011;3362;50.892;10.692;2023-02-28T00:23:20;4.25;;;2.15;;
6651;SDS011;3362;50.892;10.692;2023-02-28T00:25:47;3.27;;;2.30;;
6651;SDS011;3362;50.892;10.692;2023-02-28T00:28:13;4.28;;;2.05;;
6651;SDS011;3362;50.892;10.692;2023-02-28T00:30:39;4.77;;;2.40;;
6651;SDS011;3362;50.892;10.692;2023-02-28T00:33:05;5.40;;;2.28;;
6651;SDS011;3362;50.892;10.692;2023-02-28T00:35:31;2.95;;;1.83;;
6651;SDS011;3362;50.892;10.692;2023-02-28T00:37:59;3.08;;;2.00;;
6651;SDS011;3362;50.892;10.692;2023-02-28T00:40:25;4.82;;;2.88;;
6651;SDS011;3362;50.892;10.692;2023-02-28T00:42:51;4.32;;;2.05;;
6651;SDS011;3362;50.892;10.692;2023-02-28T00:45:17;3.60;;;2.10;;
6651;SDS011;3362;50.892;10.692;2023-02-28T00:47:44;4.18;;;1.88;;
6651;SDS011;3362;50.892;10.692;2023-02-28T00:50:11;2.90;;;2.17;;
6651;SDS011;3362;50.892;10.692;2023-02-28T00:52:38;3.20;;;2.13;;
6651;SDS011;3362;50.892;10.692;2023-02-28T00:55:05;2.58;;;2.08;;
6651;SDS011;3362;50.892;10.692;2023-02-28T00:57:32;3.47;;;1.80;;
6651;SDS011;3362;50.892;10.692;2023-02-28T00:59:58;3.90;;;1.47;;
6651;SDS011;3362;50.892;10.692;2023-02-28T01:02:24;4.07;;;2.40;;
6651;SDS011;3362;50.892;10.692;2023-02-28T01:04:50;5.30;;;2.05;;
6651;SDS011;3362;50.892;10.692;2023-02-28T01:07:16;4.00;;;2.57;;
6651;SDS011;3362;50.892;10.692;2023-02-28T01:09:43;5.60;;;1.93;;
6651;SDS011;3362;50.892;10.692;2023-02-28T01:12:10;3.40;;;2.10;;
6651;SDS011;3362;50.892;10.692;2023-02-28T01:14:36;3.70;;;1.70;;
6651;SDS011;3362;50.892;10.692;2023-02-28T01:17:03;2.37;;;1.57;;
6651;SDS011;3362;50.892;10.692;2023-02-28T01:19:29;3.60;;;2.27;;
6651;SDS011;3362;50.892;10.692;2023-02-28T01:21:55;4.28;;;1.83;;
6651;SDS011;3362;50.892;10.692;2023-02-28T01:24:21;3.87;;;2.53;;
6651;SDS011;3362;50.892;10.692;2023-02-28T01:26:47;5.13;;;2.75;;
6651;SDS011;3362;50.892;10.692;2023-02-28T01:29:15;3.58;;;2.35;;
6651;SDS011;3362;50.892;10.692;2023-02-28T01:31:42;4.20;;;2.30;;
6651;SDS011;3362;50.892;10.692;2023-02-28T01:34:08;4.95;;;2.25;;
6651;SDS011;3362;50.892;10.692;2023-02-28T01:36:34;6.13;;;2.22;;
6651;SDS011;3362;50.892;10.692;2023-02-28T01:39:01;4.35;;;2.70;;
6651;SDS011;3362;50.892;10.692;2023-02-28T01:41:28;4.43;;;2.17;;
6651;SDS011;3362;50.892;10.692;2023-02-28T01:43:56;2.83;;;1.87;;
6651;SDS011;3362;50.892;10.692;2023-02-28T01:46:24;4.75;;;2.10;;
6651;SDS011;3362;50.892;10.692;2023-02-28T01:48:51;3.93;;;2.47;;
6651;SDS011;3362;50.892;10.692;2023-02-28T01:51:19;2.92;;;1.88;;
6651;SDS011;3362;50.892;10.692;2023-02-28T01:53:47;7.63;;;2.47;;
6651;SDS011;3362;50.892;10.692;2023-02-28T01:56:16;2.63;;;2.10;;
6651;SDS011;3362;50.892;10.692;2023-02-28T01:58:45;2.15;;;1.95;;
6651;SDS011;3362;50.892;10.692;2023-02-28T02:01:12;4.05;;;2.38;;
6651;SDS011;3362;50.892;10.692;2023-02-28T02:03:47;5.43;;;1.97;;
6651;SDS011;3362;50.892;10.692;2023-02-28T02:06:17;2.50;;;2.00;;
6651;SDS011;3362;50.892;10.692;2023-02-28T02:08:44;12.20;;;2.47;;
6651;SDS011;3362;50.892;10.692;2023-02-28T02:11:10;5.63;;;2.28;;
6651;SDS011;3362;50.892;10.692;2023-02-28T02:13:41;3.97;;;1.80;;
6651;SDS011;3362;50.892;10.692;2023-02-28T02:16:13;5.07;;;2.10;;
6651;SDS011;3362;50.892;10.692;2023-02-28T02:18:43;4.93;;;2.47;;
6651;SDS011;3362;50.892;10.692;2023-02-28T02:21:18;4.18;;;2.30;;
6651;SDS011;3362;50.892;10.692;2023-02-28T02:23:51;3.80;;;2.45;;
6651;SDS011;3362;50.892;10.692;2023-02-28T02:26:30;2.78;;;2.13;;
6651;SDS011;3362;50.892;10.692;2023-02-28T02:29:11;3.92;;;2.78;;
6651;SDS011;3362;50.892;10.692;2023-02-28T02:31:48;4.80;;;2.70;;
6651;SDS011;3362;50.892;10.692;2023-02-28T02:34:32;2.33;;;1.95;;
6651;SDS011;3362;50.892;10.692;2023-02-28T02:37:07;4.18;;;2.05;;
6651;SDS011;3362;50.892;10.692;2023-02-28T02:39:36;2.72;;;2.35;;
6651;SDS011;3362;50.892;10.692;2023-02-28T02:42:08;2.95;;;1.92;;
6651;SDS011;3362;50.892;10.692;2023-02-28T02:44:37;6.47;;;2.40;;
6651;SDS011;3362;50.892;10.692;2023-02-28T02:47:08;5.90;;;2.92;;
6651;SDS011;3362;50.892;10.692;2023-02-28T02:49:37;7.85;;;2.80;;
6651;SDS011;3362;50.892;10.692;2023-02-28T02:52:04;4.88;;;2.70;;
6651;SDS011;3362;50.892;10.692;2023-02-28T02:54:32;4.38;;;2.15;;
6651;SDS011;3362;50.892;10.692;2023-02-28T02:57:01;4.63;;;2.00;;
6651;SDS011;3362;50.892;10.692;2023-02-28T02:59:29;2.97;;;2.20;;
6651;SDS011;3362;50.892;10.692;2023-02-28T03:01:56;2.93;;;2.10;;
6651;SDS011;3362;50.892;10.692;2023-02-28T03:04:24;3.17;;;1.83;;
6651;SDS011;3362;50.892;10.692;2023-02-28T03:06:52;2.75;;;2.20;;
6651;SDS011;3362;50.892;10.692;2023-02-28T03:09:20;3.65;;;1.77;;
6651;SDS011;3362;50.892;10.692;2023-02-28T03:11:46;3.25;;;2.30;;
6651;SDS011;3362;50.892;10.692;2023-02-28T03:14:22;4.22;;;2.55;;
6651;SDS011;3362;50.892;10.692;2023-02-28T03:17:00;4.97;;;2.40;;
6651;SDS011;3362;50.892;10.692;2023-02-28T03:19:32;8.23;;;2.90;;
6651;SDS011;3362;50.892;10.692;2023-02-28T03:22:04;4.07;;;2.20;;
6651;SDS011;3362;50.892;10.692;2023-02-28T03:24:33;6.47;;;1.80;;
6651;SDS011;3362;50.892;10.692;2023-02-28T03:27:03;4.63;;;2.10;;
6651;SDS011;3362;50.892;10.692;2023-02-28T03:29:32;3.30;;;2.40;;
6651;SDS011;3362;50.892;10.692;2023-02-28T03:32:00;3.73;;;2.27;;
6651;SDS011;3362;50.892;10.692;2023-02-28T03:34:29;3.73;;;2.23;;
6651;SDS011;3362;50.892;10.692;2023-02-28T03:36:59;2.70;;;1.93;;
6651;SDS011;3362;50.892;10.692;2023-02-28T03:39:30;2.40;;;1.50;;
6651;SDS011;3362;50.892;10.692;2023-02-28T03:42:00;7.57;;;2.10;;
6651;SDS011;3362;50.892;10.692;2023-02-28T03:44:28;6.13;;;2.50;;
6651;SDS011;3362;50.892;10.692;2023-02-28T03:46:56;5.57;;;2.37;;
6651;SDS011;3362;50.892;10.692;2023-02-28T03:49:25;4.27;;;2.20;;
6651;SDS011;3362;50.892;10.692;2023-02-28T03:51:52;3.30;;;1.67;;
6651;SDS011;3362;50.892;10.692;2023-02-28T03:54:21;4.13;;;2.60;;
6651;SDS011;3362;50.892;10.692;2023-02-28T03:56:52;3.83;;;2.17;;
6651;SDS011;3362;50.892;10.692;2023-02-28T03:59:20;4.13;;;2.40;;
6651;SDS011;3362;50.892;10.692;2023-02-28T04:01:48;4.20;;;2.63;;
6651;SDS011;3362;50.892;10.692;2023-02-28T04:04:15;8.00;;;2.80;;
6651;SDS011;3362;50.892;10.692;2023-02-28T04:06:42;4.00;;;2.20;;
6651;SDS011;3362;50.892;10.692;2023-02-28T04:09:09;5.57;;;2.80;;
6651;SDS011;3362;50.892;10.692;2023-02-28T04:11:37;3.73;;;2.30;;
6651;SDS011;3362;50.892;10.692;2023-02-28T04:14:06;3.40;;;2.00;;
6651;SDS011;3362;50.892;10.692;2023-02-28T04:16:33;2.63;;;2.00;;
6651;SDS011;3362;50.892;10.692;2023-02-28T04:19:00;3.20;;;2.00;;
6651;SDS011;3362;50.892;10.692;2023-02-28T04:21:28;6.03;;;2.30;;
6651;SDS011;3362;50.892;10.692;2023-02-28T04:23:54;4.97;;;2.57;;
6651;SDS011;3362;50.892;10.692;2023-02-28T04:26:20;4.50;;;2.13;;
6651;SDS011;3362;50.892;10.692;2023-02-28T04:28:46;4.50;;;2.93;;
6651;SDS011;3362;50.892;10.692;2023-02-28T04:31:14;4.67;;;2.97;;
6651;SDS011;3362;50.892;10.692;2023-02-28T04:33:40;3.93;;;2.67;;
6651;SDS011;3362;50.892;10.692;2023-02-28T04:36:07;7.60;;;4.40;;
6651;SDS011;3362;50.892;10.692;2023-02-28T04:38:35;8.37;;;4.43;;
6651;SDS011;3362;50.892;10.692;2023-02-28T04:41:02;11.98;;;4.57;;
6651;SDS011;3362;50.892;10.692;2023-02-28T04:43:28;8.43;;;4.53;;
6651;SDS011;3362;50.892;10.692;2023-02-28T04:45:55;12.23;;;4.97;;
6651;SDS011;3362;50.892;10.692;2023-02-28T04:48:23;7.63;;;3.67;;
6651;SDS011;3362;50.892;10.692;2023-02-28T04:50:50;5.90;;;3.30;;
6651;SDS011;3362;50.892;10.692;2023-02-28T04:53:16;6.07;;;2.87;;
6651;SDS011;3362;50.892;10.692;2023-02-28T04:55:42;4.87;;;2.63;;
6651;SDS011;3362;50.892;10.692;2023-02-28T04:58:09;5.00;;;2.63;;
6651;SDS011;3362;50.892;10.692;2023-02-28T05:00:35;6.40;;;2.57;;
6651;SDS011;3362;50.892;10.692;2023-02-28T05:03:01;3.90;;;2.17;;
6651;SDS011;3362;50.892;10.692;2023-02-28T05:05:29;5.40;;;2.07;;
6651;SDS011;3362;50.892;10.692;2023-02-28T05:07:55;7.53;;;2.37;;
6651;SDS011;3362;50.892;10.692;2023-02-28T05:10:22;5.30;;;2.37;;
6651;SDS011;3362;50.892;10.692;2023-02-28T05:12:48;5.87;;;2.93;;
6651;SDS011;3362;50.892;10.692;2023-02-28T05:15:15;3.33;;;2.23;;
6651;SDS011;3362;50.892;10.692;2023-02-28T05:17:41;4.23;;;2.87;;
6651;SDS011;3362;50.892;10.692;2023-02-28T05:20:08;5.20;;;2.47;;
6651;SDS011;3362;50.892;10.692;2023-02-28T05:22:37;5.00;;;2.60;;
6651;SDS011;3362;50.892;10.692;2023-02-28T05:25:03;6.13;;;2.50;;
6651;SDS011;3362;50.892;10.692;2023-02-28T05:27:30;3.03;;;1.88;;
6651;SDS011;3362;50.892;10.692;2023-02-28T05:29:56;5.13;;;2.37;;
6651;SDS011;3362;50.892;10.692;2023-02-28T05:32:23;2.57;;;1.93;;
6651;SDS011;3362;50.892;10.692;2023-02-28T05:34:50;4.17;;;2.30;;
6651;SDS011;3362;50.892;10.692;2023-02-28T05:37:16;3.25;;;2.25;;
6651;SDS011;3362;50.892;10.692;2023-02-28T05:39:44;7.20;;;2.87;;
6651;SDS011;3362;50.892;10.692;2023-02-28T05:42:10;3.00;;;1.97;;
6651;SDS011;3362;50.892;10.692;2023-02-28T05:44:36;4.87;;;2.37;;
6651;SDS011;3362;50.892;10.692;2023-02-28T05:47:02;7.43;;;2.87;;
6651;SDS011;3362;50.892;10.692;2023-02-28T05:49:29;4.07;;;2.37;;
6651;SDS011;3362;50.892;10.692;2023-02-28T05:51:55;3.20;;;2.30;;
6651;SDS011;3362;50.892;10.692;2023-02-28T05:54:21;4.87;;;2.53;;
6651;SDS011;3362;50.892;10.692;2023-02-28T05:56:48;5.37;;;2.63;;
6651;SDS011;3362;50.892;10.692;2023-02-28T05:59:15;7.10;;;2.53;;
6651;SDS011;3362;50.892;10.692;2023-02-28T06:01:41;4.47;;;2.30;;
6651;SDS011;3362;50.892;10.692;2023-02-28T06:04:12;3.53;;;1.93;;
6651;SDS011;3362;50.892;10.692;2023-02-28T06:06:39;4.03;;;2.37;;
6651;SDS011;3362;50.892;10.692;2023-02-28T06:09:06;4.65;;;1.70;;
6651;SDS011;3362;50.892;10.692;2023-02-28T06:11:32;5.95;;;2.05;;
6651;SDS011;3362;50.892;10.692;2023-02-28T06:14:00;2.00;;;1.53;;
6651;SDS011;3362;50.892;10.692;2023-02-28T06:16:26;6.40;;;2.33;;
6651;SDS011;3362;50.892;10.692;2023-02-28T06:18:53;2.20;;;1.50;;
6651;SDS011;3362;50.892;10.692;2023-02-28T06:21:21;4.20;;;2.07;;
6651;SDS011;3362;50.892;10.692;2023-02-28T06:23:47;3.53;;;2.33;;
6651;SDS011;3362;50.892;10.692;2023-02-28T06:26:13;3.33;;;1.97;;
6651;SDS011;3362;50.892;10.692;2023-02-28T06:28:39;3.23;;;1.57;;
6651;SDS011;3362;50.892;10.692;2023-02-28T06:31:08;3.23;;;2.30;;
6651;SDS011;3362;50.892;10.692;2023-02-28T06:33:34;3.93;;;2.00;;
6651;SDS011;3362;50.892;10.692;2023-02-28T06:36:01;4.00;;;2.20;;
6651;SDS011;3362;50.892;10.692;2023-02-28T06:38:27;2.10;;;1.80;;
6651;SDS011;3362;50.892;10.692;2023-02-28T06:40:53;4.40;;;2.03;;
6651;SDS011;3362;50.892;10.692;2023-02-28T06:43:19;3.92;;;2.13;;
6651;SDS011;3362;50.892;10.692;2023-02-28T06:45:46;4.27;;;2.00;;
6651;SDS011;3362;50.892;10.692;2023-02-28T06:48:13;4.17;;;2.30;;
6651;SDS011;3362;50.892;10.692;2023-02-28T06:50:40;4.30;;;2.17;;
6651;SDS011;3362;50.892;10.692;2023-02-28T06:53:06;3.27;;;1.90;;
6651;SDS011;3362;50.892;10.692;2023-02-28T06:55:32;2.40;;;1.67;;
6651;SDS011;3362;50.892;10.692;2023-02-28T06:57:58;3.43;;;2.20;;
6651;SDS011;3362;50.892;10.692;2023-02-28T07:00:25;8.37;;;2.47;;
6651;SDS011;3362;50.892;10.692;2023-02-28T07:02:51;3.20;;;2.00;;
6651;SDS011;3362;50.892;10.692;2023-02-28T07:05:20;5.87;;;3.03;;
6651;SDS011;3362;50.892;10.692;2023-02-28T07:07:46;15.13;;;3.77;;
6651;SDS011;3362;50.892;10.692;2023-02-28T07:10:12;12.50;;;4.03;;
6651;SDS011;3362;50.892;10.692;2023-02-28T07:12:41;19.97;;;4.03;;
6651;SDS011;3362;50.892;10.692;2023-02-28T07:15:08;17.93;;;2.90;;
6651;SDS011;3362;50.892;10.692;2023-02-28T07:17:35;5.93;;;2.57;;
6651;SDS011;3362;50.892;10.692;2023-02-28T07:20:01;24.60;;;3.90;;
6651;SDS011;3362;50.892;10.692;2023-02-28T07:22:30;15.27;;;3.83;;
6651;SDS011;3362;50.892;10.692;2023-02-28T07:24:57;7.83;;;3.33;;
6651;SDS011;3362;50.892;10.692;2023-02-28T07:27:23;14.30;;;2.93;;
6651;SDS011;3362;50.892;10.692;2023-02-28T07:29:52;5.83;;;2.53;;
6651;SDS011;3362;50.892;10.692;2023-02-28T07:32:19;3.90;;;2.67;;
6651;SDS011;3362;50.892;10.692;2023-02-28T07:34:46;4.80;;;2.40;;
6651;SDS011;3362;50.892;10.692;2023-02-28T07:37:12;4.07;;;2.47;;
6651;SDS011;3362;50.892;10.692;2023-02-28T07:39:40;5.17;;;2.43;;
6651;SDS011;3362;50.892;10.692;2023-02-28T07:42:07;6.47;;;2.60;;
6651;SDS011;3362;50.892;10.692;2023-02-28T07:44:35;3.88;;;2.17;;
6651;SDS011;3362;50.892;10.692;2023-02-28T07:47:05;3.90;;;1.92;;
6651;SDS011;3362;50.892;10.692;2023-02-28T07:49:31;2.60;;;2.07;;
6651;SDS011;3362;50.892;10.692;2023-02-28T07:51:58;4.17;;;2.50;;
6651;SDS011;3362;50.892;10.692;2023-02-28T07:54:24;2.90;;;2.20;;
6651;SDS011;3362;50.892;10.692;2023-02-28T07:56:51;4.13;;;2.90;;
6651;SDS011;3362;50.892;10.692;2023-02-28T07:59:18;6.18;;;2.83;;
6651;SDS011;3362;50.892;10.692;2023-02-28T08:01:44;5.72;;;3.15;;
6651;SDS011;3362;50.892;10.692;2023-02-28T08:04:10;6.77;;;2.73;;
6651;SDS011;3362;50.892;10.692;2023-02-28T08:06:36;5.77;;;3.40;;
6651;SDS011;3362;50.892;10.692;2023-02-28T08:09:02;5.45;;;2.33;;
6651;SDS011;3362;50.892;10.692;2023-02-28T08:11:29;17.67;;;3.60;;
6651;SDS011;3362;50.892;10.692;2023-02-28T08:13:56;5.27;;;3.00;;
6651;SDS011;3362;50.892;10.692;2023-02-28T08:16:22;4.97;;;2.63;;
6651;SDS011;3362;50.892;10.692;2023-02-28T08:18:49;4.72;;;2.50;;
6651;SDS011;3362;50.892;10.692;2023-02-28T08:21:15;3.83;;;2.42;;
6651;SDS011;3362;50.892;10.692;2023-02-28T08:23:42;4.25;;;2.90;;
6651;SDS011;3362;50.892;10.692;2023-02-28T08:26:08;5.05;;;3.30;;
6651;SDS011;3362;50.892;10.692;2023-02-28T08:28:34;5.32;;;3.25;;
6651;SDS011;3362;50.892;10.692;2023-02-28T08:31:02;5.10;;;2.90;;
6651;SDS011;3362;50.892;10.692;2023-02-28T08:33:32;7.13;;;4.17;;
6651;SDS011;3362;50.892;10.692;2023-02-28T08:35:58;14.30;;;4.87;;
6651;SDS011;3362;50.892;10.692;2023-02-28T08:38:25;11.23;;;6.53;;
6651;SDS011;3362;50.892;10.692;2023-02-28T08:40:57;9.95;;;6.20;;
6651;SDS011;3362;50.892;10.692;2023-02-28T08:43:23;11.75;;;4.93;;
6651;SDS011;3362;50.892;10.692;2023-02-28T08:45:51;8.10;;;4.65;;
6651;SDS011;3362;50.892;10.692;2023-02-28T08:48:18;5.07;;;3.33;;
6651;SDS011;3362;50.892;10.692;2023-02-28T08:50:44;6.17;;;3.57;;
6651;SDS011;3362;50.892;10.692;2023-02-28T08:53:11;2.88;;;2.47;;
6651;SDS011;3362;50.892;10.692;2023-02-28T08:55:37;3.90;;;2.30;;
6651;SDS011;3362;50.892;10.692;2023-02-28T08:58:03;5.57;;;2.63;;
6651;SDS011;3362;50.892;10.692;2023-02-28T09:00:29;3.35;;;2.35;;
6651;SDS011;3362;50.892;10.692;2023-02-28T09:02:55;8.52;;;2.75;;
6651;SDS011;3362;50.892;10.692;2023-02-28T09:05:23;7.93;;;2.75;;
6651;SDS011;3362;50.892;10.692;2023-02-28T09:07:49;4.82;;;2.35;;
6651;SDS011;3362;50.892;10.692;2023-02-28T09:10:16;5.22;;;2.42;;
6651;SDS011;3362;50.892;10.692;2023-02-28T09:12:42;5.60;;;2.38;;
6651;SDS011;3362;50.892;10.692;2023-02-28T09:15:10;6.03;;;1.98;;
6651;SDS011;3362;50.892;10.692;2023-02-28T09:17:37;3.85;;;2.28;;
6651;SDS011;3362;50.892;10.692;2023-02-28T09:20:03;4.13;;;2.53;;
6651;SDS011;3362;50.892;10.692;2023-02-28T09:22:31;3.97;;;2.10;;
6651;SDS011;3362;50.892;10.692;2023-02-28T09:24:58;4.40;;;2.70;;
6651;SDS011;3362;50.892;10.692;2023-02-28T09:27:24;5.57;;;2.85;;
6651;SDS011;3362;50.892;10.692;2023-02-28T09:29:50;5.22;;;2.95;;
6651;SDS011;3362;50.892;10.692;2023-02-28T09:32:16;4.80;;;2.40;;
6651;SDS011;3362;50.892;10.692;2023-02-28T09:34:43;4.43;;;2.88;;
6651;SDS011;3362;50.892;10.692;2023-02-28T09:37:09;4.15;;;2.20;;
6651;SDS011;3362;50.892;10.692;2023-02-28T09:39:37;3.50;;;2.55;;
6651;SDS011;3362;50.892;10.692;2023-02-28T09:42:03;8.68;;;2.08;;
6651;SDS011;3362;50.892;10.692;2023-02-28T09:44:31;4.75;;;2.63;;
6651;SDS011;3362;50.892;10.692;2023-02-28T09:46:59;4.70;;;2.53;;
6651;SDS011;3362;50.892;10.692;2023-02-28T09:49:28;2.75;;;2.00;;
6651;SDS011;3362;50.892;10.692;2023-02-28T09:51:58;4.75;;;2.40;;
6651;SDS011;3362;50.892;10.692;2023-02-28T09:54:27;3.20;;;2.50;;
6651;SDS011;3362;50.892;10.692;2023-02-28T09:56:56;4.65;;;1.90;;
6651;SDS011;3362;50.892;10.692;2023-02-28T09:59:30;4.97;;;2.08;;
6651;SDS011;3362;50.892;10.692;2023-02-28T10:02:01;2.35;;;1.70;;
6651;SDS011;3362;50.892;10.692;2023-02-28T10:04:38;6.50;;;2.38;;
6651;SDS011;3362;50.892;10.692;2023-02-28T10:07:07;4.88;;;1.80;;
6651;SDS011;3362;50.892;10.692;2023-02-28T10:09:42;2.75;;;1.67;;
6651;SDS011;3362;50.892;10.692;2023-02-28T10:12:10;2.58;;;1.85;;
6651;SDS011;3362;50.892;10.692;2023-02-28T10:14:45;8.38;;;2.22;;
6651;SDS011;3362;50.892;10.692;2023-02-28T10:17:13;5.82;;;2.13;;
6651;SDS011;3362;50.892;10.692;2023-02-28T10:19:42;6.30;;;2.67;;
6651;SDS011;3362;50.892;10.692;2023-02-28T10:22:11;9.13;;;2.60;;
6651;SDS011;3362;50.892;10.692;2023-02-28T10:24:39;1.88;;;1.67;;
6651;SDS011;3362;50.892;10.692;2023-02-28T10:27:12;6.30;;;2.17;;
6651;SDS011;3362;50.892;10.692;2023-02-28T10:29:40;3.95;;;1.92;;
6651;SDS011;3362;50.892;10.692;2023-02-28T10:32:08;5.93;;;2.33;;
6651;SDS011;3362;50.892;10.692;2023-02-28T10:34:37;4.68;;;2.20;;
6651;SDS011;3362;50.892;10.692;2023-02-28T10:37:03;3.63;;;1.92;;
6651;SDS011;3362;50.892;10.692;2023-02-28T10:39:39;5.32;;;2.47;;
6651;SDS011;3362;50.892;10.692;2023-02-28T10:42:18;5.30;;;2.55;;
6651;SDS011;3362;50.892;10.692;2023-02-28T10:44:46;5.07;;;1.98;;
6651;SDS011;3362;50.892;10.692;2023-02-28T10:47:13;3.20;;;2.10;;
6651;SDS011;3362;50.892;10.692;2023-02-28T10:49:40;4.38;;;2.10;;
6651;SDS011;3362;50.892;10.692;2023-02-28T10:52:12;6.75;;;2.55;;
6651;SDS011;3362;50.892;10.692;2023-02-28T10:54:39;4.22;;;1.98;;
6651;SDS011;3362;50.892;10.692;2023-02-28T10:57:07;3.85;;;2.70;;
6651;SDS011;3362;50.892;10.692;2023-02-28T10:59:34;4.70;;;2.50;;
6651;SDS011;3362;50.892;10.692;2023-02-28T11:02:02;8.27;;;3.13;;
6651;SDS011;3362;50.892;10.692;2023-02-28T11:04:32;9.25;;;4.05;;
6651;SDS011;3362;50.892;10.692;2023-02-28T11:07:01;12.25;;;6.28;;
6651;SDS011;3362;50.892;10.692;2023-02-28T11:09:28;9.60;;;5.07;;
6651;SDS011;3362;50.892;10.692;2023-02-28T11:11:56;9.77;;;4.45;;
6651;SDS011;3362;50.892;10.692;2023-02-28T11:14:24;6.22;;;3.95;;
6651;SDS011;3362;50.892;10.692;2023-02-28T11:16:51;3.85;;;2.72;;
6651;SDS011;3362;50.892;10.692;2023-02-28T11:19:20;4.32;;;2.67;;
6651;SDS011;3362;50.892;10.692;2023-02-28T11:21:51;2.80;;;2.05;;
6651;SDS011;3362;50.892;10.692;2023-02-28T11:24:19;2.63;;;1.98;;
6651;SDS011;3362;50.892;10.692;2023-02-28T11:26:48;4.30;;;2.22;;
6651;SDS011;3362;50.892;10.692;2023-02-28T11:29:17;4.22;;;2.13;;
6651;SDS011;3362;50.892;10.692;2023-02-28T11:31:48;3.55;;;2.10;;
6651;SDS011;3362;50.892;10.692;2023-02-28T11:34:28;5.03;;;2.22;;
6651;SDS011;3362;50.892;10.692;2023-02-28T11:36:55;5.55;;;2.22;;
6651;SDS011;3362;50.892;10.692;2023-02-28T11:39:21;3.90;;;2.33;;
6651;SDS011;3362;50.892;10.692;2023-02-28T11:44:39;2.40;;;2.00;;
6651;SDS011;3362;50.892;10.692;2023-02-28T11:47:10;3.83;;;2.05;;
6651;SDS011;3362;50.892;10.692;2023-02-28T11:49:44;3.88;;;2.80;;
6651;SDS011;3362;50.892;10.692;2023-02-28T11:52:16;3.88;;;2.50;;
6651;SDS011;3362;50.892;10.692;2023-02-28T11:54:59;6.93;;;1.85;;
6651;SDS011;3362;50.892;10.692;2023-02-28T11:57:30;4.00;;;2.30;;
6651;SDS011;3362;50.892;10.692;2023-02-28T12:00:00;4.75;;;1.98;;
6651;SDS011;3362;50.892;10.692;2023-02-28T12:02:28;4.93;;;2.30;;
6651;SDS011;3362;50.892;10.692;2023-02-28T12:05:05;3.13;;;2.40;;
6651;SDS011;3362;50.892;10.692;2023-02-28T12:07:39;3.90;;;2.13;;
6651;SDS011;3362;50.892;10.692;2023-02-28T16:18:46;7.93;;;4.53;;
6651;SDS011;3362;50.892;10.692;2023-02-28T16:21:13;6.88;;;4.03;;
6651;SDS011;3362;50.892;10.692;2023-02-28T16:23:39;6.10;;;3.88;;
6651;SDS011;3362;50.892;10.692;2023-02-28T16:26:05;9.60;;;3.88;;
6651;SDS011;3362;50.892;10.692;2023-02-28T16:28:32;6.95;;;4.75;;
6651;SDS011;3362;50.892;10.692;2023-02-28T16:30:59;6.03;;;3.75;;
6651;SDS011;3362;50.892;10.692;2023-02-28T16:33:27;6.93;;;4.18;;
6651;SDS011;3362;50.892;10.692;2023-02-28T16:35:55;9.75;;;3.67;;
6651;SDS011;3362;50.892;10.692;2023-02-28T16:38:21;7.55;;;4.40;;
6651;SDS011;3362;50.892;10.692;2023-02-28T16:40:48;5.47;;;3.75;;
6651;SDS011;3362;50.892;10.692;2023-02-28T16:43:16;8.70;;;4.50;;
6651;SDS011;3362;50.892;10.692;2023-02-28T16:45:43;8.45;;;4.22;;
6651;SDS011;3362;50.892;10.692;2023-02-28T16:48:10;6.40;;;3.90;;
6651;SDS011;3362;50.892;10.692;2023-02-28T16:50:38;6.15;;;4.00;;
6651;SDS011;3362;50.892;10.692;2023-02-28T16:53:06;8.13;;;4.13;;
6651;SDS011;3362;50.892;10.692;2023-02-28T16:55:32;12.90;;;4.95;;
6651;SDS011;3362;50.892;10.692;2023-02-28T16:57:59;10.27;;;5.13;;
6651;SDS011;3362;50.892;10.692;2023-02-28T17:00:26;8.10;;;4.75;;
6651;SDS011;3362;50.892;10.692;2023-02-28T17:02:52;10.05;;;4.63;;
6651;SDS011;3362;50.892;10.692;2023-02-28T17:05:19;7.78;;;5.15;;
6651;SDS011;3362;50.892;10.692;2023-02-28T17:07:45;9.98;;;4.65;;
6651;SDS011;3362;50.892;10.692;2023-02-28T17:10:14;14.32;;;6.10;;
6651;SDS011;3362;50.892;10.692;2023-02-28T17:12:41;8.02;;;4.82;;
6651;SDS011;3362;50.892;10.692;2023-02-28T17:15:08;14.10;;;4.93;;
6651;SDS011;3362;50.892;10.692;2023-02-28T17:17:34;8.57;;;4.45;;
6651;SDS011;3362;50.892;10.692;2023-02-28T17:20:01;14.68;;;5.32;;
6651;SDS011;3362;50.892;10.692;2023-02-28T17:22:28;10.65;;;5.43;;
6651;SDS011;3362;50.892;10.692;2023-02-28T17:24:54;9.05;;;4.95;;
6651;SDS011;3362;50.892;10.692;2023-02-28T17:27:24;8.18;;;4.82;;
6651;SDS011;3362;50.892;10.692;2023-02-28T17:29:50;10.55;;;5.57;;
6651;SDS011;3362;50.892;10.692;2023-02-28T17:32:16;8.13;;;4.85;;
6651;SDS011;3362;50.892;10.692;2023-02-28T17:34:43;9.88;;;5.80;;
6651;SDS011;3362;50.892;10.692;2023-02-28T17:37:10;7.97;;;5.10;;
6651;SDS011;3362;50.892;10.692;2023-02-28T17:39:36;10.40;;;5.45;;
6651;SDS011;3362;50.892;10.692;2023-02-28T17:42:03;9.85;;;5.28;;
6651;SDS011;3362;50.892;10.692;2023-02-28T17:44:30;8.40;;;4.65;;
6651;SDS011;3362;50.892;10.692;2023-02-28T17:46:57;7.60;;;5.43;;
6651;SDS011;3362;50.892;10.692;2023-02-28T17:49:24;10.55;;;4.93;;
6651;SDS011;3362;50.892;10.692;2023-02-28T17:51:50;8.07;;;4.45;;
6651;SDS011;3362;50.892;10.692;2023-02-28T17:54:17;7.68;;;4.72;;
6651;SDS011;3362;50.892;10.692;2023-02-28T17:56:43;9.75;;;4.53;;
6651;SDS011;3362;50.892;10.692;2023-02-28T17:59:09;6.45;;;4.15;;
6651;SDS011;3362;50.892;10.692;2023-02-28T18:01:37;8.93;;;4.85;;
6651;SDS011;3362;50.892;10.692;2023-02-28T18:04:03;10.32;;;4.38;;
6651;SDS011;3362;50.892;10.692;2023-02-28T18:06:30;9.93;;;4.50;;
6651;SDS011;3362;50.892;10.692;2023-02-28T18:08:59;7.70;;;4.80;;
6651;SDS011;3362;50.892;10.692;2023-02-28T18:11:25;13.10;;;5.45;;
6651;SDS011;3362;50.892;10.692;2023-02-28T18:14:06;7.97;;;4.63;;
6651;SDS011;3362;50.892;10.692;2023-02-28T18:16:33;6.75;;;4.50;;
6651;SDS011;3362;50.892;10.692;2023-02-28T18:19:01;11.63;;;5.60;;
6651;SDS011;3362;50.892;10.692;2023-02-28T18:21:27;11.02;;;5.47;;
6651;SDS011;3362;50.892;10.692;2023-02-28T18:23:53;14.82;;;6.13;;
6651;SDS011;3362;50.892;10.692;2023-02-28T18:26:20;9.77;;;5.90;;
6651;SDS011;3362;50.892;10.692;2023-02-28T18:28:46;13.68;;;7.03;;
6651;SDS011;3362;50.892;10.692;2023-02-28T18:31:13;10.38;;;6.35;;
6651;SDS011;3362;50.892;10.692;2023-02-28T18:33:40;10.00;;;6.70;;
6651;SDS011;3362;50.892;10.692;2023-02-28T18:36:08;11.63;;;6.28;;
6651;SDS011;3362;50.892;10.692;2023-02-28T18:38:34;8.68;;;6.00;;
6651;SDS011;3362;50.892;10.692;2023-02-28T18:41:02;12.57;;;6.75;;
6651;SDS011;3362;50.892;10.692;2023-02-28T18:43:29;13.93;;;6.30;;
6651;SDS011;3362;50.892;10.692;2023-02-28T18:45:55;12.82;;;6.55;;
6651;SDS011;3362;50.892;10.692;2023-02-28T18:48:21;10.68;;;6.07;;
6651;SDS011;3362;50.892;10.692;2023-02-28T18:50:48;9.83;;;6.37;;
6651;SDS011;3362;50.892;10.692;2023-02-28T18:53:15;10.10;;;5.97;;
6651;SDS011;3362;50.892;10.692;2023-02-28T18:55:42;8.30;;;6.35;;
6651;SDS011;3362;50.892;10.692;2023-02-28T18:58:08;11.32;;;5.78;;
6651;SDS011;3362;50.892;10.692;2023-02-28T19:00:35;9.55;;;5.20;;
6651;SDS011;3362;50.892;10.692;2023-02-28T19:03:01;11.10;;;6.05;;
6651;SDS011;3362;50.892;10.692;2023-02-28T19:05:27;10.30;;;5.95;;
6651;SDS011;3362;50.892;10.692;2023-02-28T19:07:57;13.88;;;5.50;;
6651;SDS011;3362;50.892;10.692;2023-02-28T19:10:25;9.23;;;4.90;;
6651;SDS011;3362;50.892;10.692;2023-02-28T19:12:51;9.27;;;5.03;;
6651;SDS011;3362;50.892;10.692;2023-02-28T19:15:18;7.13;;;5.35;;